sensor_id;sensor_type;location;lat;lon;timestamp;temperature;humidity
24374;DHT22;12498;50.880;12.096;2023-03-24T00:01:59;12.10;39.40
24374;DHT22;12498;50.880;12.096;2023-03-24T00:04:24;12.20;39.90
24374;DHT22;12498;50.880;12.096;2023-03-24T00:06:50;12.10;40.10
24374;DHT22;12498;50.880;12.096;2023-03-24T00:09:16;12.20;40.10
24374;DHT22;12498;50.880;12.096;2023-03-24T00:11:42;12.30;39.00
24374;DHT22;12498;50.880;12.096;2023-03-24T00:14:07;12.20;34.70
24374;DHT22;12498;50.880;12.096;2023-03-24T00:16:37;12.30;36.90
24374;DHT22;12498;50.880;12.096;2023-03-24T00:19:02;12.20;37.00
24374;DHT22;12498;50.880;12.096;2023-03-24T00:21:28;12.30;33.40
24374;DHT22;12498;50.880;12.096;2023-03-24T00:23:54;12.30;33.90
24374;DHT22;12498;50.880;12.096;2023-03-24T00:26:23;12.30;35.10
24374;DHT22;12498;50.880;12.096;2023-03-24T00:28:49;12.50;34.80
24374;DHT22;12498;50.880;12.096;2023-03-24T00:31:15;12.30;35.30
24374;DHT22;12498;50.880;12.096;2023-03-24T00:33:41;12.30;34.50
24374;DHT22;12498;50.880;12.096;2023-03-24T00:36:08;12.30;33.20
24374;DHT22;12498;50.880;12.096;2023-03-24T00:38:37;12.40;34.10
24374;DHT22;12498;50.880;12.096;2023-03-24T00:41:04;12.50;36.20
24374;DHT22;12498;50.880;12.096;2023-03-24T00:43:30;12.40;37.30
24374;DHT22;12498;50.880;12.096;2023-03-24T00:46:03;12.30;38.40
24374;DHT22;12498;50.880;12.096;2023-03-24T00:48:30;12.40;35.40
24374;DHT22;12498;50.880;12.096;2023-03-24T00:50:55;12.40;36.50
24374;DHT22;12498;50.880;12.096;2023-03-24T00:55:54;12.30;29.00
24374;DHT22;12498;50.880;12.096;2023-03-24T00:58:20;12.40;26.60
24374;DHT22;12498;50.880;12.096;2023-03-24T01:00:53;12.60;22.70
24374;DHT22;12498;50.880;12.096;2023-03-24T01:03:20;12.50;20.10
24374;DHT22;12498;50.880;12.096;2023-03-24T01:05:52;12.70;20.50
24374;DHT22;12498;50.880;12.096;2023-03-24T01:08:22;12.70;18.40
24374;DHT22;12498;50.880;12.096;2023-03-24T01:10:47;12.50;18.40
24374;DHT22;12498;50.880;12.096;2023-03-24T01:13:21;12.70;17.80
24374;DHT22;12498;50.880;12.096;2023-03-24T01:15:47;12.60;16.00
24374;DHT22;12498;50.880;12.096;2023-03-24T01:18:13;12.70;17.90
24374;DHT22;12498;50.880;12.096;2023-03-24T01:20:39;12.70;16.40
24374;DHT22;12498;50.880;12.096;2023-03-24T01:23:05;12.80;14.90
24374;DHT22;12498;50.880;12.096;2023-03-24T01:25:31;12.90;12.70
24374;DHT22;12498;50.880;12.096;2023-03-24T01:27:56;12.80;14.00
24374;DHT22;12498;50.880;12.096;2023-03-24T01:30:23;12.80;13.40
24374;DHT22;12498;50.880;12.096;2023-03-24T01:32:49;12.70;12.70
24374;DHT22;12498;50.880;12.096;2023-03-24T01:37:40;12.70;14.00
24374;DHT22;12498;50.880;12.096;2023-03-24T01:40:06;12.70;15.30
24374;DHT22;12498;50.880;12.096;2023-03-24T01:49:53;12.70;10.40
24374;DHT22;12498;50.880;12.096;2023-03-24T01:54:48;12.70;9.80
24374;DHT22;12498;50.880;12.096;2023-03-24T02:07:32;12.70;5.30
24374;DHT22;12498;50.880;12.096;2023-03-24T02:10:04;13.10;1.00
24374;DHT22;12498;50.880;12.096;2023-03-24T02:12:30;13.10;1.90
24374;DHT22;12498;50.880;12.096;2023-03-24T02:14:56;13.00;4.60
24374;DHT22;12498;50.880;12.096;2023-03-24T02:19:58;12.90;2.50
24374;DHT22;12498;50.880;12.096;2023-03-24T02:29:57;13.00;8.10
24374;DHT22;12498;50.880;12.096;2023-03-24T02:55:31;12.80;54.20
24374;DHT22;12498;50.880;12.096;2023-03-24T02:58:02;12.60;68.60
24374;DHT22;12498;50.880;12.096;2023-03-24T03:00:30;12.70;67.70
24374;DHT22;12498;50.880;12.096;2023-03-24T03:02:58;12.60;81.20
24374;DHT22;12498;50.880;12.096;2023-03-24T03:05:28;12.60;88.90
24374;DHT22;12498;50.880;12.096;2023-03-24T03:15:17;12.40;54.20
24374;DHT22;12498;50.880;12.096;2023-03-24T03:17:47;12.50;62.70
24374;DHT22;12498;50.880;12.096;2023-03-24T03:22:49;12.40;61.40
24374;DHT22;12498;50.880;12.096;2023-03-24T03:25:17;12.40;64.70
24374;DHT22;12498;50.880;12.096;2023-03-24T03:27:45;12.50;62.70
24374;DHT22;12498;50.880;12.096;2023-03-24T03:30:16;11.80;66.80
24374;DHT22;12498;50.880;12.096;2023-03-24T03:32:47;12.50;61.50
24374;DHT22;12498;50.880;12.096;2023-03-24T03:35:23;12.40;76.40
24374;DHT22;12498;50.880;12.096;2023-03-24T03:40:35;12.40;86.50
24374;DHT22;12498;50.880;12.096;2023-03-24T03:43:02;12.30;69.90
24374;DHT22;12498;50.880;12.096;2023-03-24T03:45:28;12.50;75.30
24374;DHT22;12498;50.880;12.096;2023-03-24T03:47:54;12.50;79.70
24374;DHT22;12498;50.880;12.096;2023-03-24T03:50:20;12.60;84.50
24374;DHT22;12498;50.880;12.096;2023-03-24T03:52:46;12.40;86.00
24374;DHT22;12498;50.880;12.096;2023-03-24T03:57:37;12.40;84.30
24374;DHT22;12498;50.880;12.096;2023-03-24T04:00:04;12.50;89.50
24374;DHT22;12498;50.880;12.096;2023-03-24T04:37:27;12.20;86.60
24374;DHT22;12498;50.880;12.096;2023-03-24T04:39:57;12.20;84.40
24374;DHT22;12498;50.880;12.096;2023-03-24T04:42:29;12.40;84.90
24374;DHT22;12498;50.880;12.096;2023-03-24T04:44:55;12.20;83.70
24374;DHT22;12498;50.880;12.096;2023-03-24T04:47:23;12.70;86.30
24374;DHT22;12498;50.880;12.096;2023-03-24T04:49:49;12.20;78.60
24374;DHT22;12498;50.880;12.096;2023-03-24T04:52:15;12.40;72.50
24374;DHT22;12498;50.880;12.096;2023-03-24T04:54:40;12.40;71.60
24374;DHT22;12498;50.880;12.096;2023-03-24T04:57:06;12.30;71.90
24374;DHT22;12498;50.880;12.096;2023-03-24T04:59:32;12.40;67.50
24374;DHT22;12498;50.880;12.096;2023-03-24T05:01:59;12.30;69.30
24374;DHT22;12498;50.880;12.096;2023-03-24T07:40:22;14.10;1.00
24374;DHT22;12498;50.880;12.096;2023-03-24T07:42:47;14.20;1.00
24374;DHT22;12498;50.880;12.096;2023-03-24T07:47:41;14.20;11.90
24374;DHT22;12498;50.880;12.096;2023-03-24T07:50:07;14.40;5.60
24374;DHT22;12498;50.880;12.096;2023-03-24T07:52:36;14.40;6.20
24374;DHT22;12498;50.880;12.096;2023-03-24T07:57:28;14.10;1.00
24374;DHT22;12498;50.880;12.096;2023-03-24T08:02:19;14.30;1.40
24374;DHT22;12498;50.880;12.096;2023-03-24T08:12:04;14.40;15.50
24374;DHT22;12498;50.880;12.096;2023-03-24T08:14:29;14.30;17.70
24374;DHT22;12498;50.880;12.096;2023-03-24T08:16:55;14.30;15.60
24374;DHT22;12498;50.880;12.096;2023-03-24T08:19:20;14.30;16.80
24374;DHT22;12498;50.880;12.096;2023-03-24T08:33:56;14.40;21.10
24374;DHT22;12498;50.880;12.096;2023-03-24T08:36:22;14.60;16.60
24374;DHT22;12498;50.880;12.096;2023-03-24T08:38:54;14.50;24.50
24374;DHT22;12498;50.880;12.096;2023-03-24T08:41:20;14.50;21.50
24374;DHT22;12498;50.880;12.096;2023-03-24T08:43:45;14.50;24.50
24374;DHT22;12498;50.880;12.096;2023-03-24T09:27:35;15.10;6.30
24374;DHT22;12498;50.880;12.096;2023-03-24T09:30:01;15.00;1.00
24374;DHT22;12498;50.880;12.096;2023-03-24T09:32:26;15.00;1.00
24374;DHT22;12498;50.880;12.096;2023-03-24T09:34:52;15.10;1.00
24374;DHT22;12498;50.880;12.096;2023-03-24T09:49:28;16.00;1.00
24374;DHT22;12498;50.880;12.096;2023-03-24T09:51:55;16.10;1.00
24374;DHT22;12498;50.880;12.096;2023-03-24T09:56:50;16.50;1.00
24374;DHT22;12498;50.880;12.096;2023-03-24T09:59:19;16.10;1.00
24374;DHT22;12498;50.880;12.096;2023-03-24T10:01:46;16.10;1.00
24374;DHT22;12498;50.880;12.096;2023-03-24T10:04:18;16.30;1.00
24374;DHT22;12498;50.880;12.096;2023-03-24T10:19:13;15.90;1.00
24374;DHT22;12498;50.880;12.096;2023-03-24T10:21:43;16.00;1.00
24374;DHT22;12498;50.880;12.096;2023-03-24T10:26:50;15.90;1.00
24374;DHT22;12498;50.880;12.096;2023-03-24T10:31:50;16.20;1.00
24374;DHT22;12498;50.880;12.096;2023-03-24T10:34:17;16.20;1.00
24374;DHT22;12498;50.880;12.096;2023-03-24T10:36:43;16.30;1.00
24374;DHT22;12498;50.880;12.096;2023-03-24T10:39:15;16.30;1.00
24374;DHT22;12498;50.880;12.096;2023-03-24T10:41:41;16.40;1.00
24374;DHT22;12498;50.880;12.096;2023-03-24T10:44:08;16.40;1.00
24374;DHT22;12498;50.880;12.096;2023-03-24T10:46:33;16.40;1.00
24374;DHT22;12498;50.880;12.096;2023-03-24T10:49:35;16.50;1.00
24374;DHT22;12498;50.880;12.096;2023-03-24T10:51:58;16.60;1.00
24374;DHT22;12498;50.880;12.096;2023-03-24T10:54:26;16.60;1.00
24374;DHT22;12498;50.880;12.096;2023-03-24T11:01:47;16.30;1.00
24374;DHT22;12498;50.880;12.096;2023-03-24T11:04:14;16.10;1.00
24374;DHT22;12498;50.880;12.096;2023-03-24T11:06:53;16.40;1.00
24374;DHT22;12498;50.880;12.096;2023-03-24T11:09:21;16.50;1.00
24374;DHT22;12498;50.880;12.096;2023-03-24T11:11:47;16.30;1.00
24374;DHT22;12498;50.880;12.096;2023-03-24T11:16:44;16.10;1.00
24374;DHT22;12498;50.880;12.096;2023-03-24T11:19:17;15.90;1.00
24374;DHT22;12498;50.880;12.096;2023-03-24T11:21:42;15.90;1.00
24374;DHT22;12498;50.880;12.096;2023-03-24T11:24:09;15.50;1.00
24374;DHT22;12498;50.880;12.096;2023-03-24T11:26:37;15.10;1.00
24374;DHT22;12498;50.880;12.096;2023-03-24T11:29:04;14.80;11.40
24374;DHT22;12498;50.880;12.096;2023-03-24T11:31:32;14.60;22.00
24374;DHT22;12498;50.880;12.096;2023-03-24T11:34:24;14.50;28.50
24374;DHT22;12498;50.880;12.096;2023-03-24T11:39:28;14.20;77.60
24374;DHT22;12498;50.880;12.096;2023-03-24T11:42:04;14.00;99.90
24374;DHT22;12498;50.880;12.096;2023-03-24T11:44:32;13.70;99.90
24374;DHT22;12498;50.880;12.096;2023-03-24T11:47:12;13.50;99.90
24374;DHT22;12498;50.880;12.096;2023-03-24T11:49:45;13.30;99.90
24374;DHT22;12498;50.880;12.096;2023-03-24T11:52:19;13.30;99.90
24374;DHT22;12498;50.880;12.096;2023-03-24T11:54:46;13.20;99.90
24374;DHT22;12498;50.880;12.096;2023-03-24T11:57:12;13.20;99.90
24374;DHT22;12498;50.880;12.096;2023-03-24T11:59:49;13.30;99.90
24374;DHT22;12498;50.880;12.096;2023-03-24T12:02:23;13.30;99.90
24374;DHT22;12498;50.880;12.096;2023-03-24T12:15:12;13.70;99.90
24374;DHT22;12498;50.880;12.096;2023-03-24T12:17:44;13.80;99.90
24374;DHT22;12498;50.880;12.096;2023-03-24T12:20:17;13.60;99.90
24374;DHT22;12498;50.880;12.096;2023-03-24T12:27:56;12.60;99.90
24374;DHT22;12498;50.880;12.096;2023-03-24T12:35:42;11.00;99.90
24374;DHT22;12498;50.880;12.096;2023-03-24T12:38:15;10.80;99.90
24374;DHT22;12498;50.880;12.096;2023-03-24T12:46:10;10.70;99.90
24374;DHT22;12498;50.880;12.096;2023-03-24T12:51:17;10.80;99.90
24374;DHT22;12498;50.880;12.096;2023-03-24T12:59:00;10.70;99.90
24374;DHT22;12498;50.880;12.096;2023-03-24T13:01:37;10.80;99.90
24374;DHT22;12498;50.880;12.096;2023-03-24T13:06:33;10.90;99.90
24374;DHT22;12498;50.880;12.096;2023-03-24T13:11:33;11.00;99.90
24374;DHT22;12498;50.880;12.096;2023-03-24T13:14:00;11.10;99.90
24374;DHT22;12498;50.880;12.096;2023-03-24T13:16:28;11.40;99.90
24374;DHT22;12498;50.880;12.096;2023-03-24T13:18:54;11.60;99.90
24374;DHT22;12498;50.880;12.096;2023-03-24T13:21:21;11.70;99.90
24374;DHT22;12498;50.880;12.096;2023-03-24T13:23:51;11.80;99.90
24374;DHT22;12498;50.880;12.096;2023-03-24T13:29:25;11.50;99.90
24374;DHT22;12498;50.880;12.096;2023-03-24T13:31:58;11.50;99.90
24374;DHT22;12498;50.880;12.096;2023-03-24T13:34:34;11.50;99.90
24374;DHT22;12498;50.880;12.096;2023-03-24T13:39:28;11.80;99.90
24374;DHT22;12498;50.880;12.096;2023-03-24T13:41:54;11.60;99.90
24374;DHT22;12498;50.880;12.096;2023-03-24T13:44:21;11.70;99.90
24374;DHT22;12498;50.880;12.096;2023-03-24T13:46:58;11.70;99.90
24374;DHT22;12498;50.880;12.096;2023-03-24T13:49:24;11.80;99.90
24374;DHT22;12498;50.880;12.096;2023-03-24T13:51:50;11.90;99.90
24374;DHT22;12498;50.880;12.096;2023-03-24T13:54:17;11.90;68.10
24374;DHT22;12498;50.880;12.096;2023-03-24T13:56:47;11.70;80.80
24374;DHT22;12498;50.880;12.096;2023-03-24T13:59:22;11.60;74.40
24374;DHT22;12498;50.880;12.096;2023-03-24T14:04:49;11.90;89.20
24374;DHT22;12498;50.880;12.096;2023-03-24T14:17:52;12.20;68.40
24374;DHT22;12498;50.880;12.096;2023-03-24T14:22:49;11.90;53.90
24374;DHT22;12498;50.880;12.096;2023-03-24T14:37:56;13.30;2.50
24374;DHT22;12498;50.880;12.096;2023-03-24T14:40:33;13.20;1.00
24374;DHT22;12498;50.880;12.096;2023-03-24T14:45:57;13.30;1.00
24374;DHT22;12498;50.880;12.096;2023-03-24T14:48:31;13.40;1.00
24374;DHT22;12498;50.880;12.096;2023-03-24T14:50:58;13.50;1.00
24374;DHT22;12498;50.880;12.096;2023-03-24T14:53:24;13.40;1.00
24374;DHT22;12498;50.880;12.096;2023-03-24T14:55:51;14.30;1.00
24374;DHT22;12498;50.880;12.096;2023-03-24T15:00:43;15.50;1.00
24374;DHT22;12498;50.880;12.096;2023-03-24T15:03:27;15.10;1.00
24374;DHT22;12498;50.880;12.096;2023-03-24T15:06:03;15.30;1.00
24374;DHT22;12498;50.880;12.096;2023-03-24T15:08:28;15.40;1.00
24374;DHT22;12498;50.880;12.096;2023-03-24T15:13:39;14.50;1.00
24374;DHT22;12498;50.880;12.096;2023-03-24T15:18:46;13.70;1.00
24374;DHT22;12498;50.880;12.096;2023-03-24T15:21:13;13.40;1.00
24374;DHT22;12498;50.880;12.096;2023-03-24T15:23:38;13.50;1.00
24374;DHT22;12498;50.880;12.096;2023-03-24T15:26:10;13.40;1.00
24374;DHT22;12498;50.880;12.096;2023-03-24T15:28:36;13.30;1.00
24374;DHT22;12498;50.880;12.096;2023-03-24T15:31:02;13.70;1.00
24374;DHT22;12498;50.880;12.096;2023-03-24T15:33:27;13.20;1.00
24374;DHT22;12498;50.880;12.096;2023-03-24T15:38:29;13.10;1.00
24374;DHT22;12498;50.880;12.096;2023-03-24T15:41:04;13.20;1.00
24374;DHT22;12498;50.880;12.096;2023-03-24T15:43:31;13.60;1.00
24374;DHT22;12498;50.880;12.096;2023-03-24T15:45:57;13.70;1.00
24374;DHT22;12498;50.880;12.096;2023-03-24T15:48:33;13.70;1.00
24374;DHT22;12498;50.880;12.096;2023-03-24T15:51:00;13.70;1.00
24374;DHT22;12498;50.880;12.096;2023-03-24T15:53:29;13.50;1.00
24374;DHT22;12498;50.880;12.096;2023-03-24T15:58:28;13.00;1.00
24374;DHT22;12498;50.880;12.096;2023-03-24T16:00:59;13.10;1.00
24374;DHT22;12498;50.880;12.096;2023-03-24T16:03:26;14.00;1.00
24374;DHT22;12498;50.880;12.096;2023-03-24T16:05:55;12.90;1.00
24374;DHT22;12498;50.880;12.096;2023-03-24T16:08:28;12.90;1.00
24374;DHT22;12498;50.880;12.096;2023-03-24T16:13:20;12.90;1.00
24374;DHT22;12498;50.880;12.096;2023-03-24T16:18:16;13.00;1.00
24374;DHT22;12498;50.880;12.096;2023-03-24T16:20:42;13.10;1.00
24374;DHT22;12498;50.880;12.096;2023-03-24T16:23:09;13.10;1.00
24374;DHT22;12498;50.880;12.096;2023-03-24T16:25:34;13.20;1.00
24374;DHT22;12498;50.880;12.096;2023-03-24T16:28:00;13.00;1.00
24374;DHT22;12498;50.880;12.096;2023-03-24T16:30:26;13.10;1.00
24374;DHT22;12498;50.880;12.096;2023-03-24T16:32:53;13.00;1.00
24374;DHT22;12498;50.880;12.096;2023-03-24T16:35:18;13.10;1.00
24374;DHT22;12498;50.880;12.096;2023-03-24T16:37:44;13.10;1.00
24374;DHT22;12498;50.880;12.096;2023-03-24T16:40:18;12.90;1.00
24374;DHT22;12498;50.880;12.096;2023-03-24T16:42:44;12.90;1.00
24374;DHT22;12498;50.880;12.096;2023-03-24T16:45:10;12.80;1.00
24374;DHT22;12498;50.880;12.096;2023-03-24T16:47:35;13.40;1.00
24374;DHT22;12498;50.880;12.096;2023-03-24T16:50:16;12.60;1.00
24374;DHT22;12498;50.880;12.096;2023-03-24T16:52:46;12.60;1.00
24374;DHT22;12498;50.880;12.096;2023-03-24T16:55:12;12.40;1.00
24374;DHT22;12498;50.880;12.096;2023-03-24T16:57:37;12.30;1.00
24374;DHT22;12498;50.880;12.096;2023-03-24T17:00:03;12.10;1.00
24374;DHT22;12498;50.880;12.096;2023-03-24T17:02:35;12.20;1.00
24374;DHT22;12498;50.880;12.096;2023-03-24T17:07:27;12.20;1.00
24374;DHT22;12498;50.880;12.096;2023-03-24T17:09:53;12.20;1.00
24374;DHT22;12498;50.880;12.096;2023-03-24T17:14:44;12.30;1.00
24374;DHT22;12498;50.880;12.096;2023-03-24T17:17:10;12.30;1.00
24374;DHT22;12498;50.880;12.096;2023-03-24T17:19:35;12.20;1.00
24374;DHT22;12498;50.880;12.096;2023-03-24T17:22:03;12.20;1.00
24374;DHT22;12498;50.880;12.096;2023-03-24T17:24:31;12.00;1.00
24374;DHT22;12498;50.880;12.096;2023-03-24T17:26:59;12.00;1.00
24374;DHT22;12498;50.880;12.096;2023-03-24T17:29:25;11.90;1.00
24374;DHT22;12498;50.880;12.096;2023-03-24T17:31:52;11.90;1.00
24374;DHT22;12498;50.880;12.096;2023-03-24T17:34:17;11.90;1.00
24374;DHT22;12498;50.880;12.096;2023-03-24T17:36:45;11.80;1.00
24374;DHT22;12498;50.880;12.096;2023-03-24T17:39:14;11.80;1.00
24374;DHT22;12498;50.880;12.096;2023-03-24T17:41:40;11.60;1.00
24374;DHT22;12498;50.880;12.096;2023-03-24T17:44:06;11.80;1.00
24374;DHT22;12498;50.880;12.096;2023-03-24T17:46:32;11.50;1.00
24374;DHT22;12498;50.880;12.096;2023-03-24T17:51:23;11.50;1.00
24374;DHT22;12498;50.880;12.096;2023-03-24T17:53:48;11.50;1.00
24374;DHT22;12498;50.880;12.096;2023-03-24T17:56:14;12.40;1.00
24374;DHT22;12498;50.880;12.096;2023-03-24T17:58:40;11.40;1.00
24374;DHT22;12498;50.880;12.096;2023-03-24T18:01:05;11.30;1.00
24374;DHT22;12498;50.880;12.096;2023-03-24T18:03:32;11.30;1.00
24374;DHT22;12498;50.880;12.096;2023-03-24T18:06:03;11.30;1.00
24374;DHT22;12498;50.880;12.096;2023-03-24T18:08:29;11.30;1.00
24374;DHT22;12498;50.880;12.096;2023-03-24T18:11:01;11.20;1.00
24374;DHT22;12498;50.880;12.096;2023-03-24T18:13:26;11.10;1.00
24374;DHT22;12498;50.880;12.096;2023-03-24T18:15:53;11.10;1.00
24374;DHT22;12498;50.880;12.096;2023-03-24T18:18:18;11.10;1.00
24374;DHT22;12498;50.880;12.096;2023-03-24T18:20:43;11.00;1.00
24374;DHT22;12498;50.880;12.096;2023-03-24T18:23:09;11.00;1.00
24374;DHT22;12498;50.880;12.096;2023-03-24T18:25:35;10.90;1.00
24374;DHT22;12498;50.880;12.096;2023-03-24T18:28:00;10.80;1.00
24374;DHT22;12498;50.880;12.096;2023-03-24T18:30:26;11.00;4.60
24374;DHT22;12498;50.880;12.096;2023-03-24T18:32:52;10.70;4.10
24374;DHT22;12498;50.880;12.096;2023-03-24T18:35:17;10.70;5.40
24374;DHT22;12498;50.880;12.096;2023-03-24T18:37:43;10.80;8.70
24374;DHT22;12498;50.880;12.096;2023-03-24T18:40:08;10.60;6.00
24374;DHT22;12498;50.880;12.096;2023-03-24T18:42:35;10.60;7.40
24374;DHT22;12498;50.880;12.096;2023-03-24T18:45:01;10.70;12.90
24374;DHT22;12498;50.880;12.096;2023-03-24T18:47:26;10.60;12.00
24374;DHT22;12498;50.880;12.096;2023-03-24T18:49:52;10.60;12.20
24374;DHT22;12498;50.880;12.096;2023-03-24T18:52:17;9.70;13.40
24374;DHT22;12498;50.880;12.096;2023-03-24T18:54:43;10.80;12.00
24374;DHT22;12498;50.880;12.096;2023-03-24T18:57:10;10.50;19.50
24374;DHT22;12498;50.880;12.096;2023-03-24T18:59:36;10.40;13.20
24374;DHT22;12498;50.880;12.096;2023-03-24T19:02:02;10.50;16.90
24374;DHT22;12498;50.880;12.096;2023-03-24T19:04:27;10.40;21.40
24374;DHT22;12498;50.880;12.096;2023-03-24T19:06:53;10.40;23.30
24374;DHT22;12498;50.880;12.096;2023-03-24T19:09:18;10.40;25.30
24374;DHT22;12498;50.880;12.096;2023-03-24T19:11:46;10.50;26.30
24374;DHT22;12498;50.880;12.096;2023-03-24T19:14:12;10.30;27.70
24374;DHT22;12498;50.880;12.096;2023-03-24T19:16:37;10.30;32.50
24374;DHT22;12498;50.880;12.096;2023-03-24T19:19:03;10.50;35.90
24374;DHT22;12498;50.880;12.096;2023-03-24T19:21:28;10.20;36.70
24374;DHT22;12498;50.880;12.096;2023-03-24T19:23:54;10.30;44.20
24374;DHT22;12498;50.880;12.096;2023-03-24T19:26:21;10.30;41.30
24374;DHT22;12498;50.880;12.096;2023-03-24T19:28:46;10.30;52.60
24374;DHT22;12498;50.880;12.096;2023-03-24T19:31:13;10.20;58.20
24374;DHT22;12498;50.880;12.096;2023-03-24T19:33:39;10.20;65.00
24374;DHT22;12498;50.880;12.096;2023-03-24T19:36:05;10.10;60.80
24374;DHT22;12498;50.880;12.096;2023-03-24T19:38:30;10.10;73.60
24374;DHT22;12498;50.880;12.096;2023-03-24T19:40:56;9.50;69.80
24374;DHT22;12498;50.880;12.096;2023-03-24T19:45:48;10.00;78.00
24374;DHT22;12498;50.880;12.096;2023-03-24T19:48:14;10.20;79.20
24374;DHT22;12498;50.880;12.096;2023-03-24T19:50:40;10.10;78.50
24374;DHT22;12498;50.880;12.096;2023-03-24T19:53:07;10.40;78.60
24374;DHT22;12498;50.880;12.096;2023-03-24T19:55:32;9.30;84.30
24374;DHT22;12498;50.880;12.096;2023-03-24T19:57:58;9.90;80.60
24374;DHT22;12498;50.880;12.096;2023-03-24T20:00:23;10.00;92.90
24374;DHT22;12498;50.880;12.096;2023-03-24T20:07:41;10.20;99.90
24374;DHT22;12498;50.880;12.096;2023-03-24T20:12:33;9.80;99.90
24374;DHT22;12498;50.880;12.096;2023-03-24T20:17:25;10.10;99.90
24374;DHT22;12498;50.880;12.096;2023-03-24T20:19:52;10.20;99.90
24374;DHT22;12498;50.880;12.096;2023-03-24T20:22:18;10.10;99.90
24374;DHT22;12498;50.880;12.096;2023-03-24T20:24:44;10.00;99.90
24374;DHT22;12498;50.880;12.096;2023-03-24T20:27:12;9.50;99.90
24374;DHT22;12498;50.880;12.096;2023-03-24T20:29:38;10.00;99.90
24374;DHT22;12498;50.880;12.096;2023-03-24T20:32:04;10.00;99.90
24374;DHT22;12498;50.880;12.096;2023-03-24T20:34:30;10.00;99.90
24374;DHT22;12498;50.880;12.096;2023-03-24T20:41:47;9.90;99.90
24374;DHT22;12498;50.880;12.096;2023-03-24T20:44:13;10.10;99.90
24374;DHT22;12498;50.880;12.096;2023-03-24T20:51:31;10.00;99.90
24374;DHT22;12498;50.880;12.096;2023-03-24T20:53:57;10.10;99.90
24374;DHT22;12498;50.880;12.096;2023-03-24T20:56:22;9.90;99.90
24374;DHT22;12498;50.880;12.096;2023-03-24T21:01:18;9.90;99.90
24374;DHT22;12498;50.880;12.096;2023-03-24T21:03:46;9.00;99.90
24374;DHT22;12498;50.880;12.096;2023-03-24T21:06:12;9.70;99.90
24374;DHT22;12498;50.880;12.096;2023-03-24T21:08:37;9.70;99.90
24374;DHT22;12498;50.880;12.096;2023-03-24T21:11:05;9.80;99.90
24374;DHT22;12498;50.880;12.096;2023-03-24T21:13:30;9.70;99.90
24374;DHT22;12498;50.880;12.096;2023-03-24T21:15:56;9.60;99.90
24374;DHT22;12498;50.880;12.096;2023-03-24T21:18:21;9.60;99.90
24374;DHT22;12498;50.880;12.096;2023-03-24T21:23:14;9.50;99.90
24374;DHT22;12498;50.880;12.096;2023-03-24T21:25:42;9.50;99.90
24374;DHT22;12498;50.880;12.096;2023-03-24T21:28:08;9.70;99.90
24374;DHT22;12498;50.880;12.096;2023-03-24T21:30:35;9.60;99.90
24374;DHT22;12498;50.880;12.096;2023-03-24T21:33:00;10.00;99.90
24374;DHT22;12498;50.880;12.096;2023-03-24T21:35:26;9.40;99.90
24374;DHT22;12498;50.880;12.096;2023-03-24T21:37:52;9.40;99.90
24374;DHT22;12498;50.880;12.096;2023-03-24T21:40:19;9.40;99.90
24374;DHT22;12498;50.880;12.096;2023-03-24T21:42:44;9.40;99.90
24374;DHT22;12498;50.880;12.096;2023-03-24T21:45:14;9.40;99.90
24374;DHT22;12498;50.880;12.096;2023-03-24T21:47:41;9.50;99.90
24374;DHT22;12498;50.880;12.096;2023-03-24T21:50:07;8.60;99.90
24374;DHT22;12498;50.880;12.096;2023-03-24T21:52:33;9.40;99.90
24374;DHT22;12498;50.880;12.096;2023-03-24T21:55:05;9.40;99.90
24374;DHT22;12498;50.880;12.096;2023-03-24T21:57:31;9.40;99.90
24374;DHT22;12498;50.880;12.096;2023-03-24T21:59:56;9.40;99.90
24374;DHT22;12498;50.880;12.096;2023-03-24T22:02:22;9.40;99.90
24374;DHT22;12498;50.880;12.096;2023-03-24T22:04:52;9.40;99.90
24374;DHT22;12498;50.880;12.096;2023-03-24T22:09:46;9.30;99.90
24374;DHT22;12498;50.880;12.096;2023-03-24T22:12:15;9.30;99.90
24374;DHT22;12498;50.880;12.096;2023-03-24T22:14:40;9.30;99.90
24374;DHT22;12498;50.880;12.096;2023-03-24T22:17:06;9.40;99.90
24374;DHT22;12498;50.880;12.096;2023-03-24T22:19:32;9.30;99.90
24374;DHT22;12498;50.880;12.096;2023-03-24T22:21:57;9.40;99.90
24374;DHT22;12498;50.880;12.096;2023-03-24T22:24:29;9.40;99.90
24374;DHT22;12498;50.880;12.096;2023-03-24T22:26:55;9.30;99.90
24374;DHT22;12498;50.880;12.096;2023-03-24T22:29:24;9.30;99.90
24374;DHT22;12498;50.880;12.096;2023-03-24T22:31:50;9.30;99.90
24374;DHT22;12498;50.880;12.096;2023-03-24T22:34:15;9.10;99.90
24374;DHT22;12498;50.880;12.096;2023-03-24T22:36:41;9.40;99.90
24374;DHT22;12498;50.880;12.096;2023-03-24T22:39:06;9.30;99.90
24374;DHT22;12498;50.880;12.096;2023-03-24T22:41:32;9.30;99.90
24374;DHT22;12498;50.880;12.096;2023-03-24T22:43:57;9.40;99.90
24374;DHT22;12498;50.880;12.096;2023-03-24T22:46:23;9.30;99.90
24374;DHT22;12498;50.880;12.096;2023-03-24T22:48:48;9.20;99.90
24374;DHT22;12498;50.880;12.096;2023-03-24T22:51:14;9.20;99.90
24374;DHT22;12498;50.880;12.096;2023-03-24T22:53:43;9.20;99.90
24374;DHT22;12498;50.880;12.096;2023-03-24T22:56:09;9.40;99.90
24374;DHT22;12498;50.880;12.096;2023-03-24T22:58:35;9.20;99.90
24374;DHT22;12498;50.880;12.096;2023-03-24T23:01:01;9.30;99.90
24374;DHT22;12498;50.880;12.096;2023-03-24T23:03:28;9.30;99.90
24374;DHT22;12498;50.880;12.096;2023-03-24T23:05:53;9.20;99.90
24374;DHT22;12498;50.880;12.096;2023-03-24T23:08:23;9.40;99.90
24374;DHT22;12498;50.880;12.096;2023-03-24T23:10:54;9.30;99.90
24374;DHT22;12498;50.880;12.096;2023-03-24T23:13:20;9.40;99.90
24374;DHT22;12498;50.880;12.096;2023-03-24T23:15:46;9.40;99.90
24374;DHT22;12498;50.880;12.096;2023-03-24T23:18:12;9.50;99.90
24374;DHT22;12498;50.880;12.096;2023-03-24T23:20:38;9.40;99.90
24374;DHT22;12498;50.880;12.096;2023-03-24T23:23:04;9.60;99.90
24374;DHT22;12498;50.880;12.096;2023-03-24T23:25:31;9.50;99.90
24374;DHT22;12498;50.880;12.096;2023-03-24T23:27:57;9.40;99.90
24374;DHT22;12498;50.880;12.096;2023-03-24T23:30:22;9.30;99.90
24374;DHT22;12498;50.880;12.096;2023-03-24T23:32:48;9.50;99.90
24374;DHT22;12498;50.880;12.096;2023-03-24T23:35:13;9.30;99.90
24374;DHT22;12498;50.880;12.096;2023-03-24T23:37:39;9.50;99.90
24374;DHT22;12498;50.880;12.096;2023-03-24T23:40:09;9.40;99.90
24374;DHT22;12498;50.880;12.096;2023-03-24T23:42:40;9.30;99.90
24374;DHT22;12498;50.880;12.096;2023-03-24T23:45:06;10.00;99.90
24374;DHT22;12498;50.880;12.096;2023-03-24T23:47:33;9.30;99.90
24374;DHT22;12498;50.880;12.096;2023-03-24T23:50:03;9.20;99.90
24374;DHT22;12498;50.880;12.096;2023-03-24T23:52:28;9.20;99.90